Time;durP1;ratioP1;P1;durP2;ratioP2;P2;SDS_P1;SDS_P2;PMS_P1;PMS_P2;Temp;Humidity;BMP_temperature;BMP_pressure;BME280_temperature;BME280_humidity;BME280_pressure;Samples;Min_cycle;Max_cycle;Signal;HPM_P1;HPM_P2
2021/10/11 00:00:37;;;;;;;51.53;31.87;;;10.40;99.90;;;;;;5016122;28;20034;-85
2021/10/11 00:03:02;;;;;;;58.23;33.27;;;10.50;99.90;;;;;;5015264;28;20162;-86
2021/10/11 00:05:28;;;;;;;55.23;32.50;;;10.40;99.90;;;;;;5016287;28;20030;-85
2021/10/11 00:07:54;;;;;;;54.13;32.03;;;10.40;99.90;;;;;;5016859;28;20038;-86
2021/10/11 00:10:19;;;;;;;52.97;30.60;;;10.40;99.90;;;;;;5016054;28;20029;-86
2021/10/11 00:12:47;;;;;;;59.40;34.90;;;10.50;99.90;;;;;;5015345;28;20030;-85
2021/10/11 00:15:14;;;;;;;58.23;33.10;;;10.40;99.90;;;;;;5015187;28;20703;-86
2021/10/11 00:17:39;;;;;;;52.07;31.17;;;10.40;99.90;;;;;;5015573;28;20026;-87
2021/10/11 00:20:05;;;;;;;59.77;34.40;;;10.40;99.90;;;;;;5014787;28;20033;-86
2021/10/11 00:22:31;;;;;;;56.40;33.80;;;10.40;99.90;;;;;;5015169;28;20033;-86
2021/10/11 00:24:57;;;;;;;66.63;34.63;;;10.40;99.90;;;;;;5015244;28;20635;-85
2021/10/11 00:27:22;;;;;;;61.27;34.10;;;10.40;99.90;;;;;;5016603;28;20038;-86
2021/10/11 00:29:48;;;;;;;55.27;33.10;;;10.40;99.90;;;;;;5014586;28;20518;-86
2021/10/11 00:32:13;;;;;;;59.37;35.87;;;10.40;99.90;;;;;;5012669;28;20137;-85
2021/10/11 00:34:39;;;;;;;57.73;33.63;;;10.50;99.90;;;;;;5011688;28;20502;-85
2021/10/11 00:37:05;;;;;;;58.10;34.03;;;10.50;99.90;;;;;;5012133;28;20061;-86
2021/10/11 00:39:31;;;;;;;62.00;35.23;;;10.60;99.90;;;;;;5011473;28;20094;-86
2021/10/11 00:41:57;;;;;;;57.93;35.27;;;10.50;99.90;;;;;;5011951;28;20125;-85
2021/10/11 00:44:23;;;;;;;54.33;32.27;;;10.60;99.90;;;;;;5011782;28;20037;-86
2021/10/11 00:46:48;;;;;;;56.50;35.33;;;10.60;99.90;;;;;;5012020;28;20395;-86
2021/10/11 00:49:14;;;;;;;57.33;34.47;;;10.60;99.90;;;;;;5011003;28;20030;-86
2021/10/11 00:51:40;;;;;;;71.17;37.63;;;10.50;99.90;;;;;;5013326;28;20379;-86
2021/10/11 00:54:06;;;;;;;62.77;35.47;;;10.60;99.90;;;;;;5011542;28;20129;-86
2021/10/11 00:56:31;;;;;;;63.20;37.90;;;10.60;99.90;;;;;;5011843;28;20037;-86
2021/10/11 00:58:57;;;;;;;58.00;35.83;;;10.60;99.90;;;;;;5012638;28;20474;-85
2021/10/11 01:01:23;;;;;;;65.60;38.20;;;10.60;99.90;;;;;;5012925;28;20378;-86
2021/10/11 01:03:49;;;;;;;62.47;37.23;;;10.60;99.90;;;;;;5010977;28;20057;-86
2021/10/11 01:06:15;;;;;;;59.17;35.70;;;10.60;99.90;;;;;;5011517;28;20041;-86
2021/10/11 01:08:42;;;;;;;60.30;36.10;;;10.70;99.90;;;;;;4995139;28;20037;-86
2021/10/11 01:11:08;;;;;;;59.63;34.47;;;10.60;99.90;;;;;;5011111;28;20034;-86
2021/10/11 01:13:34;;;;;;;61.30;36.83;;;10.60;99.90;;;;;;5011208;28;20029;-85
2021/10/11 01:16:00;;;;;;;68.53;37.73;;;10.70;99.90;;;;;;5011457;28;20394;-86
2021/10/11 01:18:26;;;;;;;59.67;34.90;;;10.70;99.90;;;;;;5011212;28;20026;-87
2021/10/11 01:20:51;;;;;;;67.03;37.33;;;10.70;99.90;;;;;;5010841;28;20027;-86
2021/10/11 01:23:17;;;;;;;66.03;37.77;;;10.70;99.90;;;;;;5029162;23;20036;-85
2021/10/11 01:25:43;;;;;;;65.97;39.13;;;10.70;99.90;;;;;;5031751;28;20035;-84
2021/10/11 01:28:09;;;;;;;68.10;39.27;;;10.70;99.90;;;;;;5033411;28;20037;-84
2021/10/11 01:30:34;;;;;;;61.83;37.40;;;10.70;99.90;;;;;;5032625;28;20033;-84
2021/10/11 01:33:01;;;;;;;65.33;38.13;;;10.70;99.90;;;;;;5031690;28;20025;-84
2021/10/11 01:35:27;;;;;;;62.13;37.93;;;10.80;99.90;;;;;;5030966;28;20063;-84
2021/10/11 01:37:52;;;;;;;66.20;38.53;;;10.70;99.90;;;;;;5031798;28;20049;-84
2021/10/11 01:40:20;;;;;;;67.63;38.30;;;10.80;99.90;;;;;;5032037;28;20033;-84
2021/10/11 01:42:49;;;;;;;63.73;38.83;;;10.80;99.90;;;;;;5032569;28;20021;-86
2021/10/11 01:45:15;;;;;;;;;;;10.80;99.90;;;;;;5031750;28;20029;-84
2021/10/11 01:47:40;;;;;;;66.20;37.70;;;10.80;99.90;;;;;;5033017;28;20341;-84
2021/10/11 01:50:07;;;;;;;69.77;40.53;;;10.80;99.90;;;;;;5030404;28;20460;-84
2021/10/11 01:52:32;;;;;;;67.23;39.57;;;10.80;99.90;;;;;;5031432;28;20378;-84
2021/10/11 01:54:58;;;;;;;66.50;40.03;;;10.80;99.90;;;;;;5032365;28;20030;-85
2021/10/11 01:57:23;;;;;;;73.00;41.90;;;10.80;99.90;;;;;;5032603;28;20075;-84
2021/10/11 01:59:49;;;;;;;64.17;36.97;;;10.70;99.90;;;;;;5032251;28;20026;-84
2021/10/11 02:02:15;;;;;;;71.70;42.27;;;10.80;99.90;;;;;;5031169;28;20080;-84
2021/10/11 02:04:40;;;;;;;71.70;41.23;;;10.80;99.90;;;;;;5030614;28;20028;-84
2021/10/11 02:07:06;;;;;;;73.83;43.17;;;10.80;99.90;;;;;;5031103;28;20053;-85
2021/10/11 02:09:31;;;;;;;76.67;43.33;;;10.80;99.90;;;;;;5031877;28;20017;-84
2021/10/11 02:11:57;;;;;;;71.60;42.57;;;10.80;99.90;;;;;;5032388;28;20021;-84
2021/10/11 02:14:23;;;;;;;79.40;44.33;;;10.90;99.90;;;;;;5031882;28;20017;-85
2021/10/11 02:16:48;;;;;;;78.00;44.57;;;10.80;99.90;;;;;;5030694;28;20386;-85
2021/10/11 02:19:14;;;;;;;77.37;44.07;;;10.90;99.90;;;;;;5029962;28;20124;-84
2021/10/11 02:21:40;;;;;;;76.03;44.03;;;10.90;99.90;;;;;;5030507;28;20049;-84
2021/10/11 02:24:05;;;;;;;76.27;43.53;;;10.90;99.90;;;;;;5030202;28;20553;-84
2021/10/11 02:26:31;;;;;;;74.93;43.03;;;10.90;99.90;;;;;;5030688;28;20083;-84
2021/10/11 02:28:57;;;;;;;72.83;41.53;;;10.90;99.90;;;;;;5029798;28;20098;-85
2021/10/11 02:31:23;;;;;;;76.03;44.83;;;11.00;99.90;;;;;;5032076;28;20021;-85
2021/10/11 02:33:49;;;;;;;81.30;45.00;;;11.00;99.90;;;;;;5031385;28;20037;-84
2021/10/11 02:36:15;;;;;;;76.47;44.00;;;11.00;99.90;;;;;;5030118;28;20255;-84
2021/10/11 02:38:41;;;;;;;74.53;44.07;;;11.00;99.90;;;;;;5029013;28;20190;-85
2021/10/11 02:41:07;;;;;;;76.43;43.97;;;11.00;99.90;;;;;;5029051;28;20103;-84
2021/10/11 02:43:32;;;;;;;75.27;44.10;;;11.00;99.90;;;;;;5031779;28;20021;-84
2021/10/11 02:45:58;;;;;;;74.93;43.37;;;11.00;99.90;;;;;;5031699;28;20057;-84
2021/10/11 02:48:24;;;;;;;80.27;45.70;;;11.00;99.90;;;;;;5031608;28;20087;-86
2021/10/11 02:50:50;;;;;;;83.70;47.33;;;10.90;99.90;;;;;;5029704;28;20084;-85
2021/10/11 02:53:15;;;;;;;81.27;45.70;;;11.00;99.90;;;;;;5030069;28;20036;-85
2021/10/11 02:55:42;;;;;;;76.13;45.17;;;11.00;99.90;;;;;;5031197;28;20108;-84
2021/10/11 02:58:07;;;;;;;80.03;45.07;;;11.00;99.90;;;;;;5032198;28;20386;-84
2021/10/11 03:00:33;;;;;;;78.00;43.90;;;11.00;99.90;;;;;;5030858;28;20022;-85
2021/10/11 03:02:58;;;;;;;72.40;42.03;;;11.00;99.90;;;;;;5030841;28;20021;-85
2021/10/11 03:05:24;;;;;;;72.93;43.23;;;11.00;99.90;;;;;;5029256;28;20108;-86
2021/10/11 03:07:50;;;;;;;73.27;43.90;;;11.00;99.90;;;;;;5030837;28;20417;-87
2021/10/11 03:10:15;;;;;;;77.83;44.03;;;11.00;99.90;;;;;;5051035;28;20029;-84
2021/10/11 03:12:41;;;;;;;81.30;46.80;;;11.10;99.90;;;;;;5066832;28;20033;-84
2021/10/11 03:15:08;;;;;;;79.73;44.23;;;11.10;99.90;;;;;;5066553;28;20468;-85
2021/10/11 03:17:34;;;;;;;74.60;41.90;;;11.10;99.90;;;;;;5067075;28;20087;-85
2021/10/11 03:19:59;;;;;;;77.83;44.77;;;11.10;99.90;;;;;;5066161;28;20078;-84
2021/10/11 03:22:26;;;;;;;79.37;45.97;;;11.10;99.90;;;;;;5066740;28;20045;-83
2021/10/11 03:24:53;;;;;;;80.83;46.20;;;11.10;99.90;;;;;;5065422;28;20045;-87
2021/10/11 03:27:19;;;;;;;77.97;45.80;;;11.10;99.90;;;;;;5066229;28;20031;-86
2021/10/11 03:29:44;;;;;;;83.73;46.23;;;11.10;99.90;;;;;;5049909;28;20033;-86
2021/10/11 03:32:10;;;;;;;77.80;45.73;;;11.10;99.90;;;;;;5050724;28;20025;-85
2021/10/11 03:34:35;;;;;;;81.17;46.47;;;11.10;99.90;;;;;;5050159;28;20457;-85
2021/10/11 03:37:01;;;;;;;76.63;43.60;;;11.10;99.90;;;;;;5035704;28;20075;-85
2021/10/11 03:39:26;;;;;;;78.50;44.30;;;11.10;99.90;;;;;;5029023;28;20026;-85
2021/10/11 03:41:52;;;;;;;77.20;44.40;;;11.10;99.90;;;;;;5031020;28;20390;-85
2021/10/11 03:44:18;;;;;;;77.00;43.97;;;11.10;99.90;;;;;;5029411;28;20589;-85
2021/10/11 03:46:43;;;;;;;78.57;45.80;;;11.10;99.90;;;;;;5029500;28;20041;-85
2021/10/11 03:49:09;;;;;;;80.10;45.03;;;11.10;99.90;;;;;;5028819;28;20036;-85
2021/10/11 03:51:34;;;;;;;82.00;46.43;;;11.10;99.90;;;;;;5031028;28;20123;-86
2021/10/11 03:54:00;;;;;;;79.27;45.70;;;11.10;99.90;;;;;;5029515;28;20079;-85
2021/10/11 03:56:26;;;;;;;80.33;46.00;;;11.10;99.90;;;;;;5029729;28;20025;-85
2021/10/11 03:58:52;;;;;;;90.07;47.53;;;11.00;99.90;;;;;;5029505;28;20026;-86
2021/10/11 04:01:17;;;;;;;84.07;46.40;;;11.10;99.90;;;;;;5029768;28;20091;-85
2021/10/11 04:03:44;;;;;;;78.40;44.73;;;11.10;99.90;;;;;;5029461;28;20473;-86
2021/10/11 04:06:10;;;;;;;88.10;47.43;;;11.00;99.90;;;;;;5032410;28;20041;-85
2021/10/11 04:08:43;;;;;;;83.27;46.10;;;11.10;99.90;;;;;;5033386;28;20033;-85
2021/10/11 04:13:35;;;;;;;77.53;44.10;;;11.00;99.90;;;;;;5035130;28;20327;-85
2021/10/11 04:16:00;;;;;;;81.57;45.20;;;11.10;99.90;;;;;;5034749;28;20104;-88
2021/10/11 04:18:26;;;;;;;77.90;44.50;;;11.00;99.90;;;;;;5033588;28;20474;-85
2021/10/11 04:20:52;;;;;;;82.37;44.27;;;11.00;99.90;;;;;;5033834;28;20021;-84
2021/10/11 04:23:18;;;;;;;80.70;45.40;;;11.00;99.90;;;;;;5033241;28;20108;-86
2021/10/11 04:25:43;;;;;;;82.83;45.87;;;11.00;99.90;;;;;;5032802;28;20030;-85
2021/10/11 04:28:11;;;;;;;77.03;44.50;;;11.00;99.90;;;;;;5034179;28;20021;-85
2021/10/11 04:30:37;;;;;;;77.87;43.97;;;11.00;99.90;;;;;;5033650;28;20493;-86
2021/10/11 04:33:03;;;;;;;85.10;46.03;;;11.10;99.90;;;;;;5032970;28;20470;-84
2021/10/11 04:35:28;;;;;;;82.23;45.87;;;11.10;99.90;;;;;;5034481;28;20036;-85
2021/10/11 04:37:54;;;;;;;84.90;47.30;;;11.10;99.90;;;;;;5033839;28;20390;-86
2021/10/11 04:40:21;;;;;;;90.23;47.43;;;11.00;99.90;;;;;;5032580;28;20091;-87
2021/10/11 04:42:46;;;;;;;83.57;45.07;;;11.10;99.90;;;;;;5033329;28;20108;-85
2021/10/11 04:45:12;;;;;;;83.13;45.93;;;11.10;99.90;;;;;;5034528;28;20470;-87
2021/10/11 04:47:40;;;;;;;77.73;43.50;;;11.10;99.90;;;;;;5032709;28;20536;-86
2021/10/11 04:50:11;;;;;;;79.10;44.60;;;11.20;99.90;;;;;;5031362;28;20171;-87
2021/10/11 04:52:37;;;;;;;83.30;45.33;;;11.10;99.90;;;;;;5032125;28;20482;-87
2021/10/11 04:55:03;;;;;;;52.83;28.17;;;11.20;99.90;;;;;;5033199;28;20052;-85
2021/10/11 04:57:29;;;;;;;45.50;22.00;;;11.30;99.90;;;;;;5034855;28;20017;-85
2021/10/11 04:59:55;;;;;;;37.73;18.50;;;11.30;99.90;;;;;;5039445;28;20087;-86
2021/10/11 05:02:20;;;;;;;31.83;16.87;;;11.40;99.90;;;;;;5040601;28;20025;-86
2021/10/11 05:04:46;;;;;;;36.30;18.80;;;11.50;99.90;;;;;;5039191;28;20398;-88
2021/10/11 05:07:11;;;;;;;31.57;16.17;;;11.60;99.90;;;;;;5034294;28;20029;-87
2021/10/11 05:13:52;;;;;;;34.20;16.50;;;11.90;99.90;;;;;;5035628;28;20401;-88
2021/10/11 05:16:17;;;;;;;25.75;12.60;;;11.90;99.90;;;;;;5035544;28;20121;-85
2021/10/11 05:18:43;;;;;;;25.45;12.48;;;11.90;99.90;;;;;;5035322;28;20443;-86
2021/10/11 05:21:09;;;;;;;24.17;11.57;;;11.90;99.90;;;;;;5035712;28;20075;-86
2021/10/11 05:23:34;;;;;;;24.63;10.85;;;11.90;99.90;;;;;;5033440;28;20543;-84
2021/10/11 05:26:00;;;;;;;19.40;9.70;;;11.90;99.90;;;;;;5034474;28;20474;-85
2021/10/11 05:28:26;;;;;;;21.35;9.85;;;11.90;99.90;;;;;;5037325;28;20051;-86
2021/10/11 05:30:51;;;;;;;26.13;9.25;;;11.90;99.90;;;;;;5034093;28;20029;-86
2021/10/11 05:33:19;;;;;;;23.70;8.97;;;11.90;99.90;;;;;;5032924;28;20038;-87
2021/10/11 05:35:45;;;;;;;21.40;7.75;;;11.90;99.90;;;;;;5032874;28;20328;-85
2021/10/11 05:38:11;;;;;;;19.87;8.20;;;11.90;99.90;;;;;;5032983;28;20055;-86
2021/10/11 05:44:06;;;;;;;16.20;7.90;;;11.90;99.90;;;;;;5033350;28;20079;-85
2021/10/11 05:46:32;;;;;;;14.82;7.47;;;12.00;99.90;;;;;;5032553;28;20414;-85
2021/10/11 05:48:58;;;;;;;19.05;8.23;;;11.90;99.90;;;;;;5030790;28;20033;-85
2021/10/11 05:51:24;;;;;;;21.63;8.40;;;11.90;99.90;;;;;;5031419;28;20096;-85
2021/10/11 05:53:49;;;;;;;16.73;8.13;;;11.90;99.90;;;;;;5034570;28;20088;-86
2021/10/11 05:56:15;;;;;;;22.00;8.70;;;11.90;99.90;;;;;;5034913;28;20135;-86
2021/10/11 05:58:41;;;;;;;19.40;9.15;;;11.90;99.90;;;;;;5033952;28;20028;-86
2021/10/11 06:01:06;;;;;;;21.83;8.20;;;11.90;99.90;;;;;;5036291;28;20029;-88
2021/10/11 06:03:32;;;;;;;22.00;9.30;;;11.90;99.90;;;;;;5032691;28;20056;-85
2021/10/11 06:05:58;;;;;;;20.02;9.35;;;11.90;99.90;;;;;;5033394;28;20075;-85
2021/10/11 06:08:25;;;;;;;21.02;8.98;;;11.90;99.90;;;;;;5031265;28;20037;-89
2021/10/11 06:10:51;;;;;;;22.58;8.15;;;11.90;99.90;;;;;;5031310;28;20053;-86
2021/10/11 06:13:17;;;;;;;18.67;8.50;;;11.90;99.90;;;;;;5032824;28;20022;-87
2021/10/11 06:15:45;;;;;;;20.27;8.38;;;12.00;99.90;;;;;;5032593;28;20404;-86
2021/10/11 06:18:10;;;;;;;20.50;8.50;;;11.90;99.90;;;;;;5032590;28;20024;-86
2021/10/11 06:20:36;;;;;;;14.52;7.47;;;11.90;99.90;;;;;;5051464;28;20027;-87
2021/10/11 06:23:03;;;;;;;22.75;9.05;;;11.90;99.90;;;;;;5052915;28;20021;-86
2021/10/11 06:25:28;;;;;;;22.95;9.25;;;11.90;99.90;;;;;;5053716;28;20036;-85
2021/10/11 06:27:54;;;;;;;21.08;8.27;;;11.90;99.90;;;;;;5053331;28;20525;-85
2021/10/11 06:30:20;;;;;;;16.80;7.80;;;11.90;99.90;;;;;;5050193;28;20025;-85
2021/10/11 06:32:45;;;;;;;20.55;7.63;;;11.90;99.90;;;;;;5051641;28;20060;-85
2021/10/11 06:35:11;;;;;;;17.43;7.10;;;11.90;99.90;;;;;;5052884;28;20060;-85
2021/10/11 06:37:37;;;;;;;15.02;6.80;;;11.80;99.90;;;;;;5053658;28;20044;-84
2021/10/11 06:40:03;;;;;;;15.85;6.65;;;11.80;99.90;;;;;;5051244;28;20049;-86
2021/10/11 06:42:29;;;;;;;15.18;6.43;;;11.80;99.90;;;;;;5052867;28;20393;-86
2021/10/11 06:44:55;;;;;;;19.80;7.28;;;11.80;99.90;;;;;;5053934;28;20040;-85
2021/10/11 06:47:20;;;;;;;19.05;7.00;;;11.80;99.90;;;;;;5050570;28;20025;-85
2021/10/11 06:49:46;;;;;;;20.08;6.68;;;11.80;99.90;;;;;;5049821;28;20055;-86
2021/10/11 06:52:15;;;;;;;13.30;6.50;;;11.80;99.90;;;;;;5052967;28;20025;-86
2021/10/11 06:54:41;;;;;;;17.98;6.85;;;11.80;99.90;;;;;;5052929;28;20410;-87
2021/10/11 06:57:08;;;;;;;20.20;7.47;;;11.80;99.90;;;;;;5053864;28;20025;-86
2021/10/11 06:59:34;;;;;;;17.45;6.75;;;11.70;99.90;;;;;;5052637;28;20025;-85
2021/10/11 07:02:00;;;;;;;17.73;6.50;;;11.80;99.90;;;;;;5069115;28;20021;-86
2021/10/11 07:04:26;;;;;;;20.53;7.40;;;11.80;99.90;;;;;;5068654;28;20021;-86
2021/10/11 07:06:52;;;;;;;19.42;6.55;;;11.80;99.90;;;;;;5055248;28;20024;-86
2021/10/11 07:09:17;;;;;;;16.67;6.10;;;11.80;99.90;;;;;;5068798;28;20051;-88
2021/10/11 07:11:43;;;;;;;18.45;6.28;;;11.80;99.90;;;;;;5068240;28;20139;-88
2021/10/11 07:14:08;;;;;;;18.67;5.90;;;11.90;99.90;;;;;;5052023;28;20036;-87
2021/10/11 07:16:34;;;;;;;15.45;5.75;;;11.90;99.90;;;;;;5051725;28;20448;-87
2021/10/11 07:19:00;;;;;;;14.73;5.00;;;11.90;99.90;;;;;;5067156;28;20115;-87
2021/10/11 07:21:25;;;;;;;13.55;5.13;;;11.90;99.90;;;;;;5052859;28;20411;-88
2021/10/11 07:23:51;;;;;;;17.90;5.07;;;12.00;99.90;;;;;;5052972;28;20037;-87
2021/10/11 07:26:16;;;;;;;11.80;4.78;;;12.00;99.90;;;;;;5067262;28;20029;-86
2021/10/11 07:28:42;;;;;;;16.30;5.68;;;12.00;99.90;;;;;;5051556;28;20493;-88
2021/10/11 07:31:10;;;;;;;11.82;5.00;;;12.00;99.90;;;;;;5066336;28;20029;-86
2021/10/11 07:33:36;;;;;;;16.63;5.65;;;12.00;99.90;;;;;;5066287;28;20067;-86
2021/10/11 07:36:02;;;;;;;15.35;4.65;;;12.00;99.90;;;;;;5067781;28;20064;-87
2021/10/11 07:38:28;;;;;;;11.68;4.53;;;12.00;99.90;;;;;;5051451;28;20135;-86
2021/10/11 07:40:54;;;;;;;16.23;5.13;;;12.10;99.90;;;;;;5068467;28;20504;-85
2021/10/11 07:43:19;;;;;;;15.23;4.50;;;12.10;99.90;;;;;;5056508;28;20370;-86
2021/10/11 07:45:46;;;;;;;14.30;4.72;;;12.10;99.90;;;;;;5071200;28;20040;-85
2021/10/11 07:48:11;;;;;;;13.05;4.90;;;12.10;99.90;;;;;;5055206;28;20036;-86
2021/10/11 07:50:37;;;;;;;12.15;4.10;;;12.20;99.90;;;;;;5054378;28;20029;-86
2021/10/11 07:53:03;;;;;;;11.23;4.53;;;12.10;99.90;;;;;;5070416;28;20032;-86
2021/10/11 07:55:29;;;;;;;15.10;4.70;;;12.20;99.90;;;;;;5069876;28;20021;-86
2021/10/11 07:57:54;;;;;;;14.73;4.30;;;12.20;99.90;;;;;;5055487;28;20025;-87
2021/10/11 08:00:20;;;;;;;13.88;4.13;;;12.20;99.90;;;;;;5068600;28;20060;-84
2021/10/11 08:02:47;;;;;;;12.80;4.65;;;12.20;99.90;;;;;;5054082;28;20112;-88
2021/10/11 08:05:14;;;;;;;15.02;4.00;;;12.20;99.90;;;;;;5067596;28;20033;-88
2021/10/11 08:07:41;;;;;;;15.00;4.03;;;12.30;99.90;;;;;;5068234;28;20461;-88
2021/10/11 08:10:08;;;;;;;12.23;4.10;;;12.30;99.90;;;;;;5067631;28;20166;-88
2021/10/11 08:12:34;;;;;;;17.48;4.13;;;12.40;99.90;;;;;;5067889;28;20029;-87
2021/10/11 08:14:59;;;;;;;16.02;4.60;;;12.40;99.90;;;;;;5068408;28;20120;-88
2021/10/11 08:17:26;;;;;;;13.25;4.00;;;12.40;99.90;;;;;;5069487;28;20029;-88
2021/10/11 08:19:52;;;;;;;13.88;3.78;;;12.40;99.90;;;;;;5053518;28;20374;-88
2021/10/11 08:22:21;;;;;;;14.15;4.32;;;12.50;99.90;;;;;;5069591;28;20025;-88
2021/10/11 08:24:47;;;;;;;;;;;12.50;99.90;;;;;;5069450;28;20150;-88
2021/10/11 08:27:16;;;;;;;16.80;3.58;;;12.50;99.90;;;;;;5054377;28;19931;-88
2021/10/11 08:29:53;;;;;;;12.27;3.28;;;12.50;99.90;;;;;;5069043;28;20060;-88
2021/10/11 08:32:24;;;;;;;11.15;3.35;;;12.50;99.90;;;;;;5069326;28;20441;-87
2021/10/11 08:34:51;;;;;;;18.15;4.28;;;12.50;99.90;;;;;;5067310;28;20082;-88
2021/10/11 08:37:17;;;;;;;15.20;3.90;;;12.50;99.90;;;;;;5068919;28;20163;-88
2021/10/11 08:39:43;;;;;;;14.18;4.13;;;12.60;99.90;;;;;;5067798;28;20104;-89
2021/10/11 08:42:12;;;;;;;17.30;3.95;;;12.60;99.90;;;;;;5053312;28;20096;-89
2021/10/11 08:44:38;;;;;;;14.90;3.75;;;12.60;99.90;;;;;;5068362;28;20025;-88
2021/10/11 08:47:03;;;;;;;14.50;3.33;;;12.60;99.90;;;;;;5053291;28;20025;-88
2021/10/11 08:49:30;;;;;;;16.38;4.18;;;12.60;99.90;;;;;;5051400;28;20274;-87
2021/10/11 08:51:56;;;;;;;11.98;3.30;;;12.70;99.90;;;;;;5067293;28;20071;-87
2021/10/11 08:54:22;;;;;;;11.68;3.08;;;12.70;99.90;;;;;;5067997;28;20465;-88
2021/10/11 08:56:48;;;;;;;14.23;3.95;;;12.80;99.90;;;;;;5053568;28;20059;-87
2021/10/11 08:59:13;;;;;;;17.23;4.75;;;12.80;99.90;;;;;;5052081;28;20091;-87
2021/10/11 09:01:40;;;;;;;15.00;4.70;;;12.80;99.90;;;;;;5052964;28;20036;-87
2021/10/11 09:04:18;;;;;;;23.67;5.53;;;12.80;99.90;;;;;;5067174;28;20078;-88
2021/10/11 09:07:01;;;;;;;18.70;6.28;;;12.80;99.90;;;;;;5068325;28;20025;-88
2021/10/11 09:09:27;;;;;;;18.13;5.18;;;12.80;99.90;;;;;;5067250;28;20401;-88
2021/10/11 09:11:52;;;;;;;16.63;4.97;;;12.90;99.90;;;;;;5068128;28;20035;-88
2021/10/11 09:14:22;;;;;;;22.75;5.82;;;12.90;99.90;;;;;;5068232;28;20032;-88
2021/10/11 09:17:05;;;;;;;27.42;6.82;;;12.90;99.90;;;;;;5068480;28;20060;-88
2021/10/11 09:19:35;;;;;;;25.80;7.07;;;13.00;99.90;;;;;;5051888;28;20062;-87
2021/10/11 09:22:01;;;;;;;25.92;6.38;;;12.90;99.90;;;;;;5068454;28;20032;-87
2021/10/11 09:24:27;;;;;;;20.58;5.22;;;13.00;99.90;;;;;;5052549;28;20029;-90
2021/10/11 09:27:01;;;;;;;21.70;5.75;;;12.90;99.90;;;;;;5068311;28;20120;-88
2021/10/11 09:29:39;;;;;;;17.77;4.50;;;12.90;99.90;;;;;;5067901;28;20130;-87
2021/10/11 09:32:10;;;;;;;15.77;4.28;;;12.90;99.90;;;;;;5068356;28;20047;-87
2021/10/11 09:34:39;;;;;;;14.52;3.42;;;13.00;99.90;;;;;;5068009;28;20040;-86
2021/10/11 09:37:10;;;;;;;15.45;3.83;;;13.00;99.90;;;;;;5068572;28;20025;-87
2021/10/11 09:39:38;;;;;;;15.73;3.72;;;13.00;99.90;;;;;;5049338;28;20651;-88
2021/10/11 09:42:05;;;;;;;15.82;3.35;;;13.00;99.90;;;;;;5049076;28;20021;-88
2021/10/11 09:44:31;;;;;;;11.75;2.70;;;13.10;99.90;;;;;;5067839;28;20486;-87
2021/10/11 09:47:00;;;;;;;11.65;3.05;;;13.10;99.90;;;;;;5067815;28;20036;-86
2021/10/11 09:49:26;;;;;;;11.35;2.95;;;13.10;99.90;;;;;;5067241;28;20025;-87
2021/10/11 09:51:56;;;;;;;8.65;2.38;;;13.10;99.90;;;;;;5068004;28;20025;-86
2021/10/11 09:54:23;;;;;;;13.18;3.00;;;13.10;99.90;;;;;;5067566;28;20024;-87
2021/10/11 09:56:49;;;;;;;11.85;2.72;;;13.20;99.90;;;;;;5052390;28;20040;-86
2021/10/11 09:59:18;;;;;;;14.98;2.92;;;13.10;99.90;;;;;;5066441;28;20050;-86
2021/10/11 10:01:46;;;;;;;11.85;2.58;;;13.20;99.90;;;;;;5067393;28;20025;-85
2021/10/11 10:04:25;;;;;;;12.88;3.03;;;13.20;99.90;;;;;;5066789;28;20025;-86
2021/10/11 10:06:53;;;;;;;14.95;3.47;;;13.20;99.90;;;;;;5052237;28;20032;-88
2021/10/11 10:09:21;;;;;;;12.63;2.50;;;13.20;99.90;;;;;;5066861;28;20398;-87
2021/10/11 10:11:48;;;;;;;14.82;2.90;;;13.20;99.90;;;;;;5066938;28;20128;-87
2021/10/11 10:14:25;;;;;;;16.08;3.53;;;13.20;99.90;;;;;;5051332;28;20041;-86
2021/10/11 10:16:53;;;;;;;24.67;4.80;;;13.20;99.90;;;;;;5066688;28;20021;-87
2021/10/11 10:19:31;;;;;;;19.55;4.53;;;13.20;99.90;;;;;;5066029;28;20135;-87
2021/10/11 10:21:57;;;;;;;13.88;3.40;;;13.30;99.90;;;;;;5066814;28;20478;-87
2021/10/11 10:24:25;;;;;;;14.45;4.07;;;13.30;99.90;;;;;;5051066;28;20029;-87
2021/10/11 10:27:06;;;;;;;10.40;2.72;;;13.30;99.90;;;;;;5051399;28;20021;-86
2021/10/11 10:29:43;;;;;;;13.07;3.08;;;13.40;99.90;;;;;;5066099;28;20124;-87
2021/10/11 10:32:11;;;;;;;10.93;2.85;;;13.50;99.90;;;;;;5067003;28;20028;-87
2021/10/11 10:34:37;;;;;;;10.65;2.72;;;13.50;99.90;;;;;;5067901;28;20017;-86
2021/10/11 10:37:14;;;;;;;12.32;2.75;;;13.60;99.90;;;;;;5063173;28;20091;-86
2021/10/11 10:39:45;;;;;;;9.93;2.35;;;13.60;99.90;;;;;;5050466;28;20078;-87
2021/10/11 10:42:24;;;;;;;17.60;3.28;;;13.60;99.90;;;;;;5064125;28;20020;-88
2021/10/11 10:44:50;;;;;;;9.85;2.55;;;13.60;99.90;;;;;;5069622;28;20021;-87
2021/10/11 10:47:15;;;;;;;14.45;3.10;;;13.60;99.90;;;;;;5069700;28;20077;-87
2021/10/11 10:49:47;;;;;;;14.10;2.60;;;13.70;99.90;;;;;;5069623;28;20025;-87
2021/10/11 10:52:16;;;;;;;16.67;3.88;;;13.80;99.90;;;;;;5069837;28;20020;-86
2021/10/11 10:54:49;;;;;;;12.80;2.88;;;13.80;99.90;;;;;;5069375;28;20070;-86
2021/10/11 10:57:19;;;;;;;11.38;2.72;;;13.80;99.90;;;;;;5069788;28;20111;-86
2021/10/11 11:00:00;;;;;;;14.60;2.92;;;13.80;99.90;;;;;;5069401;28;20489;-86
2021/10/11 11:02:27;;;;;;;14.45;2.25;;;13.80;99.90;;;;;;5069664;28;20044;-87
2021/10/11 11:05:01;;;;;;;12.35;2.67;;;13.80;99.90;;;;;;5069102;28;20456;-87
2021/10/11 11:07:38;;;;;;;11.43;2.00;;;13.80;99.90;;;;;;5069659;28;20024;-86
2021/10/11 11:10:18;;;;;;;13.10;2.00;;;13.80;99.90;;;;;;5070207;28;20043;-86
2021/10/11 11:12:59;;;;;;;14.60;2.33;;;13.70;99.90;;;;;;5069570;28;20112;-87
2021/10/11 11:15:32;;;;;;;14.10;2.85;;;13.70;99.90;;;;;;5068982;28;20025;-86
2021/10/11 11:18:01;;;;;;;15.63;2.78;;;13.80;99.90;;;;;;5071074;28;20024;-87
2021/10/11 11:20:33;;;;;;;7.90;2.35;;;13.80;99.90;;;;;;5069850;28;20162;-87
2021/10/11 11:23:03;;;;;;;9.55;2.00;;;13.90;99.90;;;;;;5069067;28;20404;-87
2021/10/11 11:25:37;;;;;;;9.05;1.90;;;14.00;99.90;;;;;;5068913;28;20078;-87
2021/10/11 11:28:06;;;;;;;8.05;2.10;;;14.10;99.90;;;;;;5070706;28;20031;-87
2021/10/11 11:30:32;;;;;;;7.10;1.60;;;14.10;99.90;;;;;;5068667;28;20032;-86
2021/10/11 11:33:01;;;;;;;10.50;1.42;;;14.20;99.90;;;;;;5069363;28;20033;-87
2021/10/11 11:35:30;;;;;;;9.43;1.95;;;14.30;99.90;;;;;;5069547;28;20170;-87
2021/10/11 11:37:59;;;;;;;6.97;1.45;;;14.30;99.90;;;;;;5069463;28;20128;-87
2021/10/11 11:40:31;;;;;;;10.07;2.00;;;14.30;99.90;;;;;;5069505;28;20024;-88
2021/10/11 11:42:57;;;;;;;7.53;1.70;;;14.30;99.90;;;;;;5070393;28;20040;-88
2021/10/11 11:45:45;;;;;;;8.50;1.50;;;14.30;99.90;;;;;;5069561;28;20028;-88
2021/10/11 11:48:12;;;;;;;7.82;1.30;;;14.30;99.90;;;;;;5069337;28;20020;-87
2021/10/11 11:50:38;;;;;;;10.93;2.00;;;14.30;99.90;;;;;;5068378;28;20024;-86
2021/10/11 11:53:15;;;;;;;9.32;1.77;;;14.30;99.90;;;;;;5068917;28;20028;-86
2021/10/11 11:55:44;;;;;;;8.27;1.48;;;14.40;99.90;;;;;;5070086;28;20024;-87
2021/10/11 11:58:13;;;;;;;9.90;1.98;;;14.40;99.90;;;;;;5069188;28;20025;-85
2021/10/11 12:00:43;;;;;;;10.50;1.80;;;14.40;99.90;;;;;;5069893;28;20021;-86
2021/10/11 12:03:10;;;;;;;8.98;2.63;;;14.50;99.90;;;;;;5060940;28;20025;-86
2021/10/11 12:05:36;;;;;;;11.40;2.88;;;14.60;99.90;;;;;;5067373;28;20396;-86
2021/10/11 12:08:01;;;;;;;10.65;2.15;;;14.50;99.90;;;;;;5068993;28;20047;-87
2021/10/11 12:10:27;;;;;;;11.30;2.38;;;14.60;99.90;;;;;;5050935;28;20025;-87
2021/10/11 12:13:01;;;;;;;9.10;2.15;;;14.50;99.90;;;;;;5049246;28;20025;-86
2021/10/11 12:15:28;;;;;;;10.13;2.05;;;14.40;99.90;;;;;;5050525;28;20021;-87
2021/10/11 12:18:20;;;;;;;7.10;1.75;;;14.40;99.90;;;;;;5050097;28;20025;-87
2021/10/11 12:20:49;;;;;;;11.50;2.72;;;14.30;99.90;;;;;;5045525;28;20044;-86
2021/10/11 12:23:16;;;;;;;12.02;2.45;;;14.20;99.90;;;;;;5049495;28;20389;-86
2021/10/11 12:25:42;;;;;;;8.38;1.85;;;14.10;99.90;;;;;;5049831;28;20032;-87
2021/10/11 12:28:19;;;;;;;8.93;1.60;;;14.10;99.90;;;;;;5053792;28;20105;-87
2021/10/11 12:30:48;;;;;;;10.40;1.75;;;14.00;99.90;;;;;;5054347;28;20021;-87
2021/10/11 12:33:18;;;;;;;12.63;1.98;;;13.90;99.90;;;;;;5052881;28;20115;-87
2021/10/11 12:35:59;;;;;;;15.15;2.50;;;14.00;99.90;;;;;;5053953;28;20025;-87
2021/10/11 12:38:37;;;;;;;13.73;2.30;;;13.90;99.90;;;;;;5053043;28;20520;-87
2021/10/11 12:41:11;;;;;;;11.45;1.55;;;13.90;99.90;;;;;;5052851;28;20035;-87
2021/10/11 12:43:38;;;;;;;10.60;1.77;;;13.90;99.90;;;;;;5052560;28;20044;-87